UGKO/KIU METAR and TAF weather

Enter ICAO airport designator
Station Type Date Time Source
UGKO METAR 2020/04/07 16:30 UTC NOAA

UGKO 071630Z 07011KT 9999 SCT035 BKN096 11/01 Q1026 NOSIG


Station Type Date Time Source
UGKO Decoded METAR 2020/04/07 16:30 UTC NOAA

Station name not available
Apr 07, 2020 - 12:30 PM EDT / 2020.04.07 1630 UTC
Wind: from the ENE (070 degrees) at 13 MPH (11 KT):0
Visibility: greater than 7 mile(s):0
Sky conditions: mostly cloudy
Temperature: 51 F (11 C)
Dew Point: 33 F (1 C)
Relative Humidity: 50%
Pressure (altimeter): 30.30 in. Hg (1026 hPa)
ob: UGKO 071630Z 07011KT 9999 SCT035 BKN096 11/01 Q1026 NOSIG
cycle: 16

Station Type Date Time Source
UGKO TAF 2020/04/07 12:07 UTC NOAA

TAF UGKO 071100Z 0712/0812 27007KT 9999 SCT030 BKN100 TX16/0812Z TN07/0803Z
TEMPO 0712/0716 25017KT
BECMG 0719/0722 08017KT CAVOK
BECMG 0803/0806 08027G43KT

Example: see airport list